sensor_id;sensor_type;location;lat;lon;timestamp;pressure;altitude;pressure_sealevel;temperature;humidity
45894;BME280;31603;51.148;16.932;2023-03-04T00:00:02;100363.09;;;1.49;100.00
45894;BME280;31603;51.148;16.932;2023-03-04T00:02:29;100350.63;;;1.28;100.00
45894;BME280;31603;51.148;16.932;2023-03-04T00:04:55;100339.34;;;1.23;100.00
45894;BME280;31603;51.148;16.932;2023-03-04T00:07:22;100348.56;;;1.40;100.00
45894;BME280;31603;51.148;16.932;2023-03-04T00:09:48;100345.50;;;1.25;100.00
45894;BME280;31603;51.148;16.932;2023-03-04T00:12:15;100339.34;;;1.33;100.00
45894;BME280;31603;51.148;16.932;2023-03-04T00:14:42;100335.94;;;1.31;100.00
45894;BME280;31603;51.148;16.932;2023-03-04T00:17:09;100326.16;;;1.48;100.00
45894;BME280;31603;51.148;16.932;2023-03-04T00:19:35;100321.38;;;1.32;100.00
45894;BME280;31603;51.148;16.932;2023-03-04T00:22:02;100326.13;;;1.20;100.00
45894;BME280;31603;51.148;16.932;2023-03-04T00:24:29;100327.53;;;1.24;100.00
45894;BME280;31603;51.148;16.932;2023-03-04T00:26:56;100310.09;;;1.36;100.00
45894;BME280;31603;51.148;16.932;2023-03-04T00:29:22;100303.84;;;1.26;100.00
45894;BME280;31603;51.148;16.932;2023-03-04T00:31:50;100297.75;;;1.24;100.00
45894;BME280;31603;51.148;16.932;2023-03-04T00:34:17;100297.53;;;1.35;100.00
45894;BME280;31603;51.148;16.932;2023-03-04T00:36:43;100298.13;;;1.29;100.00
45894;BME280;31603;51.148;16.932;2023-03-04T00:39:09;100299.03;;;1.20;100.00
45894;BME280;31603;51.148;16.932;2023-03-04T00:41:36;100301.75;;;1.48;100.00
45894;BME280;31603;51.148;16.932;2023-03-04T00:44:03;100295.88;;;1.25;100.00
45894;BME280;31603;51.148;16.932;2023-03-04T00:46:29;100295.59;;;1.28;100.00
45894;BME280;31603;51.148;16.932;2023-03-04T00:48:57;100284.06;;;1.53;100.00
45894;BME280;31603;51.148;16.932;2023-03-04T00:51:23;100279.81;;;1.41;100.00
45894;BME280;31603;51.148;16.932;2023-03-04T00:53:50;100275.22;;;1.51;100.00
45894;BME280;31603;51.148;16.932;2023-03-04T00:56:18;100271.41;;;1.44;100.00
45894;BME280;31603;51.148;16.932;2023-03-04T00:58:44;100272.03;;;1.56;100.00
45894;BME280;31603;51.148;16.932;2023-03-04T01:01:11;100260.75;;;1.33;100.00
45894;BME280;31603;51.148;16.932;2023-03-04T01:03:37;100270.31;;;1.64;100.00
45894;BME280;31603;51.148;16.932;2023-03-04T01:06:07;100268.44;;;1.65;100.00
45894;BME280;31603;51.148;16.932;2023-03-04T01:08:33;100269.75;;;1.61;100.00
45894;BME280;31603;51.148;16.932;2023-03-04T01:10:59;100262.63;;;1.60;100.00
45894;BME280;31603;51.148;16.932;2023-03-04T01:13:26;100273.47;;;1.60;100.00
45894;BME280;31603;51.148;16.932;2023-03-04T01:15:52;100276.06;;;1.52;100.00
45894;BME280;31603;51.148;16.932;2023-03-04T01:18:20;100263.53;;;1.51;100.00
45894;BME280;31603;51.148;16.932;2023-03-04T01:20:46;100253.22;;;1.54;100.00
45894;BME280;31603;51.148;16.932;2023-03-04T01:23:14;100255.31;;;1.42;100.00
45894;BME280;31603;51.148;16.932;2023-03-04T01:25:40;100245.66;;;1.58;100.00
45894;BME280;31603;51.148;16.932;2023-03-04T01:28:07;100235.94;;;1.83;100.00
45894;BME280;31603;51.148;16.932;2023-03-04T01:30:33;100231.41;;;1.74;100.00
45894;BME280;31603;51.148;16.932;2023-03-04T01:33:00;100226.94;;;1.64;100.00
45894;BME280;31603;51.148;16.932;2023-03-04T01:35:26;100219.81;;;1.63;100.00
45894;BME280;31603;51.148;16.932;2023-03-04T01:37:52;100221.25;;;1.58;100.00
45894;BME280;31603;51.148;16.932;2023-03-04T01:40:20;100211.22;;;1.68;100.00
45894;BME280;31603;51.148;16.932;2023-03-04T01:42:47;100212.19;;;1.67;100.00
45894;BME280;31603;51.148;16.932;2023-03-04T01:45:15;100207.19;;;1.72;100.00
45894;BME280;31603;51.148;16.932;2023-03-04T01:47:44;100205.69;;;1.78;100.00
45894;BME280;31603;51.148;16.932;2023-03-04T01:50:18;100203.22;;;1.84;100.00
45894;BME280;31603;51.148;16.932;2023-03-04T01:52:45;100200.75;;;2.09;100.00
45894;BME280;31603;51.148;16.932;2023-03-04T01:55:15;100195.69;;;2.32;100.00
45894;BME280;31603;51.148;16.932;2023-03-04T01:57:44;100191.75;;;1.73;100.00
45894;BME280;31603;51.148;16.932;2023-03-04T02:00:20;100187.97;;;1.83;100.00
45894;BME280;31603;51.148;16.932;2023-03-04T02:02:49;100183.03;;;1.97;100.00
45894;BME280;31603;51.148;16.932;2023-03-04T02:05:16;100183.81;;;1.71;100.00
45894;BME280;31603;51.148;16.932;2023-03-04T02:07:43;100189.44;;;1.96;100.00
45894;BME280;31603;51.148;16.932;2023-03-04T02:10:10;100168.06;;;1.75;100.00
45894;BME280;31603;51.148;16.932;2023-03-04T02:12:38;100172.16;;;1.61;100.00
45894;BME280;31603;51.148;16.932;2023-03-04T02:15:07;100181.31;;;1.60;100.00
45894;BME280;31603;51.148;16.932;2023-03-04T02:17:33;100187.19;;;1.73;100.00
45894;BME280;31603;51.148;16.932;2023-03-04T02:20:06;100178.13;;;1.64;100.00
45894;BME280;31603;51.148;16.932;2023-03-04T02:22:43;100194.19;;;1.93;100.00
45894;BME280;31603;51.148;16.932;2023-03-04T02:25:14;100182.78;;;1.72;100.00
45894;BME280;31603;51.148;16.932;2023-03-04T02:27:44;100189.97;;;1.81;100.00
45894;BME280;31603;51.148;16.932;2023-03-04T02:30:11;100187.19;;;1.73;100.00
45894;BME280;31603;51.148;16.932;2023-03-04T02:32:38;100185.44;;;1.82;100.00
45894;BME280;31603;51.148;16.932;2023-03-04T02:35:07;100191.41;;;1.85;100.00
45894;BME280;31603;51.148;16.932;2023-03-04T02:37:39;100181.72;;;2.01;100.00
45894;BME280;31603;51.148;16.932;2023-03-04T02:40:08;100184.31;;;1.57;100.00
45894;BME280;31603;51.148;16.932;2023-03-04T02:42:43;100162.72;;;2.01;100.00
45894;BME280;31603;51.148;16.932;2023-03-04T02:45:40;100170.69;;;2.02;100.00
45894;BME280;31603;51.148;16.932;2023-03-04T02:48:07;100164.34;;;1.93;100.00
45894;BME280;31603;51.148;16.932;2023-03-04T02:50:37;100171.84;;;2.00;100.00
45894;BME280;31603;51.148;16.932;2023-03-04T02:53:04;100156.69;;;1.71;100.00
45894;BME280;31603;51.148;16.932;2023-03-04T02:55:30;100156.59;;;1.99;100.00
45894;BME280;31603;51.148;16.932;2023-03-04T02:57:58;100153.09;;;1.88;100.00
45894;BME280;31603;51.148;16.932;2023-03-04T03:00:26;100145.31;;;1.85;100.00
45894;BME280;31603;51.148;16.932;2023-03-04T03:02:52;100149.16;;;2.01;100.00
45894;BME280;31603;51.148;16.932;2023-03-04T03:05:21;100151.56;;;2.04;100.00
45894;BME280;31603;51.148;16.932;2023-03-04T03:07:48;100146.66;;;2.25;100.00
45894;BME280;31603;51.148;16.932;2023-03-04T03:10:14;100146.53;;;1.91;100.00
45894;BME280;31603;51.148;16.932;2023-03-04T03:12:41;100150.94;;;1.92;100.00
45894;BME280;31603;51.148;16.932;2023-03-04T03:15:09;100143.19;;;1.97;100.00
45894;BME280;31603;51.148;16.932;2023-03-04T03:17:36;100145.19;;;1.95;100.00
45894;BME280;31603;51.148;16.932;2023-03-04T03:20:03;100135.66;;;2.09;100.00
45894;BME280;31603;51.148;16.932;2023-03-04T03:22:30;100130.94;;;2.11;100.00
45894;BME280;31603;51.148;16.932;2023-03-04T03:24:56;100142.34;;;1.97;100.00
45894;BME280;31603;51.148;16.932;2023-03-04T03:27:22;100129.09;;;1.93;100.00
45894;BME280;31603;51.148;16.932;2023-03-04T03:29:49;100128.53;;;2.08;100.00
45894;BME280;31603;51.148;16.932;2023-03-04T03:32:17;100127.72;;;1.89;100.00
45894;BME280;31603;51.148;16.932;2023-03-04T03:34:43;100126.63;;;1.82;100.00
45894;BME280;31603;51.148;16.932;2023-03-04T03:37:09;100135.13;;;2.05;100.00
45894;BME280;31603;51.148;16.932;2023-03-04T03:39:36;100138.88;;;1.86;100.00
45894;BME280;31603;51.148;16.932;2023-03-04T03:42:03;100132.81;;;1.92;100.00
45894;BME280;31603;51.148;16.932;2023-03-04T03:44:29;100134.06;;;1.80;100.00
45894;BME280;31603;51.148;16.932;2023-03-04T03:46:55;100124.59;;;1.84;100.00
45894;BME280;31603;51.148;16.932;2023-03-04T03:49:23;100124.34;;;1.96;100.00
45894;BME280;31603;51.148;16.932;2023-03-04T03:51:50;100125.41;;;2.03;100.00
45894;BME280;31603;51.148;16.932;2023-03-04T03:54:16;100112.81;;;1.93;100.00
45894;BME280;31603;51.148;16.932;2023-03-04T03:56:43;100112.59;;;1.87;100.00
45894;BME280;31603;51.148;16.932;2023-03-04T03:59:09;100110.34;;;1.82;100.00
45894;BME280;31603;51.148;16.932;2023-03-04T04:01:35;100108.69;;;2.07;100.00
45894;BME280;31603;51.148;16.932;2023-03-04T04:04:02;100109.50;;;1.82;100.00
45894;BME280;31603;51.148;16.932;2023-03-04T04:06:30;100106.47;;;1.85;100.00
45894;BME280;31603;51.148;16.932;2023-03-04T04:08:56;100114.69;;;1.93;100.00
45894;BME280;31603;51.148;16.932;2023-03-04T04:11:23;100109.53;;;2.08;100.00
45894;BME280;31603;51.148;16.932;2023-03-04T04:13:50;100106.19;;;2.14;100.00
45894;BME280;31603;51.148;16.932;2023-03-04T04:16:16;100107.25;;;2.21;100.00
45894;BME280;31603;51.148;16.932;2023-03-04T04:18:42;100100.16;;;2.28;100.00
45894;BME280;31603;51.148;16.932;2023-03-04T04:21:09;100112.00;;;2.19;100.00
45894;BME280;31603;51.148;16.932;2023-03-04T04:23:36;100104.56;;;2.03;100.00
45894;BME280;31603;51.148;16.932;2023-03-04T04:26:03;100106.88;;;2.16;100.00
45894;BME280;31603;51.148;16.932;2023-03-04T04:28:30;100107.63;;;2.00;100.00
45894;BME280;31603;51.148;16.932;2023-03-04T04:30:56;100101.47;;;2.16;100.00
45894;BME280;31603;51.148;16.932;2023-03-04T04:33:22;100081.56;;;2.07;100.00
45894;BME280;31603;51.148;16.932;2023-03-04T04:35:49;100088.41;;;1.93;100.00
45894;BME280;31603;51.148;16.932;2023-03-04T04:38:15;100094.03;;;2.18;100.00
45894;BME280;31603;51.148;16.932;2023-03-04T04:40:44;100080.59;;;1.90;100.00
45894;BME280;31603;51.148;16.932;2023-03-04T04:43:10;100077.00;;;2.08;100.00
45894;BME280;31603;51.148;16.932;2023-03-04T04:45:36;100068.09;;;1.98;100.00
45894;BME280;31603;51.148;16.932;2023-03-04T04:48:03;100076.53;;;1.95;100.00
45894;BME280;31603;51.148;16.932;2023-03-04T04:50:29;100060.72;;;2.08;100.00
45894;BME280;31603;51.148;16.932;2023-03-04T04:52:56;100058.19;;;1.88;100.00
45894;BME280;31603;51.148;16.932;2023-03-04T04:55:22;100055.03;;;2.19;100.00
45894;BME280;31603;51.148;16.932;2023-03-04T04:57:50;100060.59;;;2.17;100.00
45894;BME280;31603;51.148;16.932;2023-03-04T05:00:17;100034.88;;;2.22;100.00
45894;BME280;31603;51.148;16.932;2023-03-04T05:02:44;100051.59;;;2.17;100.00
45894;BME280;31603;51.148;16.932;2023-03-04T05:05:10;100034.72;;;1.97;100.00
45894;BME280;31603;51.148;16.932;2023-03-04T05:07:37;100030.38;;;2.12;100.00
45894;BME280;31603;51.148;16.932;2023-03-04T05:10:04;100027.06;;;1.92;100.00
45894;BME280;31603;51.148;16.932;2023-03-04T05:12:31;100023.09;;;2.13;100.00
45894;BME280;31603;51.148;16.932;2023-03-04T05:14:58;100045.78;;;2.38;100.00
45894;BME280;31603;51.148;16.932;2023-03-04T05:17:25;100041.88;;;2.06;100.00
45894;BME280;31603;51.148;16.932;2023-03-04T05:19:51;100052.25;;;2.11;100.00
45894;BME280;31603;51.148;16.932;2023-03-04T05:22:17;100050.38;;;2.37;100.00
45894;BME280;31603;51.148;16.932;2023-03-04T05:24:44;100059.84;;;2.33;100.00
45894;BME280;31603;51.148;16.932;2023-03-04T05:27:10;100066.69;;;2.46;100.00
45894;BME280;31603;51.148;16.932;2023-03-04T05:29:37;100060.16;;;2.30;100.00
45894;BME280;31603;51.148;16.932;2023-03-04T05:32:05;100062.47;;;2.17;100.00
45894;BME280;31603;51.148;16.932;2023-03-04T05:34:31;100079.66;;;2.26;100.00
45894;BME280;31603;51.148;16.932;2023-03-04T05:36:57;100060.00;;;2.32;100.00
45894;BME280;31603;51.148;16.932;2023-03-04T05:39:24;100055.38;;;2.24;100.00
45894;BME280;31603;51.148;16.932;2023-03-04T05:41:50;100080.97;;;2.48;100.00
45894;BME280;31603;51.148;16.932;2023-03-04T05:44:17;100060.06;;;2.40;100.00
45894;BME280;31603;51.148;16.932;2023-03-04T05:46:43;100056.16;;;2.42;100.00
45894;BME280;31603;51.148;16.932;2023-03-04T05:49:11;100048.53;;;2.46;100.00
45894;BME280;31603;51.148;16.932;2023-03-04T05:51:37;100062.50;;;2.51;100.00
45894;BME280;31603;51.148;16.932;2023-03-04T05:54:04;100048.84;;;2.69;100.00
45894;BME280;31603;51.148;16.932;2023-03-04T05:56:30;100051.63;;;2.51;100.00
45894;BME280;31603;51.148;16.932;2023-03-04T05:58:58;100052.84;;;2.57;100.00
45894;BME280;31603;51.148;16.932;2023-03-04T06:01:24;100061.31;;;2.54;100.00
45894;BME280;31603;51.148;16.932;2023-03-04T06:03:51;100048.34;;;2.39;100.00
45894;BME280;31603;51.148;16.932;2023-03-04T06:06:18;100053.22;;;2.62;100.00
45894;BME280;31603;51.148;16.932;2023-03-04T06:08:45;100054.50;;;2.50;100.00
45894;BME280;31603;51.148;16.932;2023-03-04T06:11:11;100060.31;;;2.55;100.00
45894;BME280;31603;51.148;16.932;2023-03-04T06:13:37;100049.88;;;2.76;100.00
45894;BME280;31603;51.148;16.932;2023-03-04T06:16:04;100040.47;;;2.54;100.00
45894;BME280;31603;51.148;16.932;2023-03-04T06:18:31;100055.22;;;2.60;100.00
45894;BME280;31603;51.148;16.932;2023-03-04T06:20:59;100062.44;;;2.77;100.00
45894;BME280;31603;51.148;16.932;2023-03-04T06:23:27;100053.88;;;2.64;100.00
45894;BME280;31603;51.148;16.932;2023-03-04T06:25:56;100068.41;;;2.81;100.00
45894;BME280;31603;51.148;16.932;2023-03-04T06:28:24;100066.91;;;2.95;100.00
45894;BME280;31603;51.148;16.932;2023-03-04T06:30:50;100065.66;;;2.73;100.00
45894;BME280;31603;51.148;16.932;2023-03-04T06:33:17;100077.31;;;2.65;100.00
45894;BME280;31603;51.148;16.932;2023-03-04T06:35:44;100074.03;;;2.96;100.00
45894;BME280;31603;51.148;16.932;2023-03-04T06:38:11;100070.38;;;2.71;100.00
45894;BME280;31603;51.148;16.932;2023-03-04T06:40:39;100065.56;;;2.99;100.00
45894;BME280;31603;51.148;16.932;2023-03-04T06:43:08;100072.97;;;2.80;100.00
45894;BME280;31603;51.148;16.932;2023-03-04T06:45:34;100078.94;;;2.84;100.00
45894;BME280;31603;51.148;16.932;2023-03-04T06:48:04;100087.91;;;2.76;100.00
45894;BME280;31603;51.148;16.932;2023-03-04T06:50:32;100070.47;;;2.53;100.00
45894;BME280;31603;51.148;16.932;2023-03-04T06:52:59;100089.28;;;2.88;100.00
45894;BME280;31603;51.148;16.932;2023-03-04T06:55:27;100070.19;;;2.72;100.00
45894;BME280;31603;51.148;16.932;2023-03-04T06:57:55;100076.22;;;2.84;100.00
45894;BME280;31603;51.148;16.932;2023-03-04T07:00:22;100077.06;;;2.84;100.00
45894;BME280;31603;51.148;16.932;2023-03-04T07:02:49;100092.75;;;2.99;100.00
45894;BME280;31603;51.148;16.932;2023-03-04T07:05:15;100079.50;;;3.04;100.00
45894;BME280;31603;51.148;16.932;2023-03-04T07:07:42;100082.78;;;2.73;100.00
45894;BME280;31603;51.148;16.932;2023-03-04T07:10:09;100080.44;;;2.78;100.00
45894;BME280;31603;51.148;16.932;2023-03-04T07:12:36;100092.63;;;2.74;100.00
45894;BME280;31603;51.148;16.932;2023-03-04T07:15:05;100098.78;;;2.84;100.00
45894;BME280;31603;51.148;16.932;2023-03-04T07:17:31;100091.25;;;2.70;100.00
45894;BME280;31603;51.148;16.932;2023-03-04T07:19:59;100095.47;;;2.64;100.00
45894;BME280;31603;51.148;16.932;2023-03-04T07:22:25;100087.19;;;2.74;100.00
45894;BME280;31603;51.148;16.932;2023-03-04T07:24:52;100092.75;;;2.64;100.00
45894;BME280;31603;51.148;16.932;2023-03-04T07:27:18;100092.88;;;2.89;100.00
45894;BME280;31603;51.148;16.932;2023-03-04T07:29:44;100100.13;;;2.80;100.00
45894;BME280;31603;51.148;16.932;2023-03-04T07:32:13;100093.72;;;2.89;100.00
45894;BME280;31603;51.148;16.932;2023-03-04T07:34:39;100095.38;;;2.82;100.00
45894;BME280;31603;51.148;16.932;2023-03-04T07:37:06;100100.81;;;2.82;100.00
45894;BME280;31603;51.148;16.932;2023-03-04T07:39:32;100080.69;;;2.59;100.00
45894;BME280;31603;51.148;16.932;2023-03-04T07:41:58;100089.22;;;2.72;100.00
45894;BME280;31603;51.148;16.932;2023-03-04T07:44:25;100094.38;;;2.83;100.00
45894;BME280;31603;51.148;16.932;2023-03-04T07:46:51;100097.03;;;2.75;100.00
45894;BME280;31603;51.148;16.932;2023-03-04T07:49:20;100084.81;;;2.71;100.00
45894;BME280;31603;51.148;16.932;2023-03-04T07:51:47;100080.75;;;2.75;100.00
45894;BME280;31603;51.148;16.932;2023-03-04T07:54:13;100083.97;;;2.71;100.00
45894;BME280;31603;51.148;16.932;2023-03-04T07:56:40;100087.19;;;2.74;100.00
45894;BME280;31603;51.148;16.932;2023-03-04T07:59:06;100081.94;;;2.73;100.00
45894;BME280;31603;51.148;16.932;2023-03-04T08:01:35;100078.25;;;2.90;100.00
45894;BME280;31603;51.148;16.932;2023-03-04T08:04:02;100071.63;;;2.84;100.00
45894;BME280;31603;51.148;16.932;2023-03-04T08:06:31;100075.41;;;2.92;100.00
45894;BME280;31603;51.148;16.932;2023-03-04T08:08:59;100068.41;;;2.81;100.00
45894;BME280;31603;51.148;16.932;2023-03-04T08:11:27;100064.66;;;2.82;100.00
45894;BME280;31603;51.148;16.932;2023-03-04T08:13:54;100075.44;;;3.08;100.00
45894;BME280;31603;51.148;16.932;2023-03-04T08:16:22;100076.47;;;3.15;100.00
45894;BME280;31603;51.148;16.932;2023-03-04T08:18:52;100067.88;;;2.77;100.00
45894;BME280;31603;51.148;16.932;2023-03-04T08:21:21;100064.25;;;3.11;100.00
45894;BME280;31603;51.148;16.932;2023-03-04T08:23:49;100073.41;;;3.10;100.00
45894;BME280;31603;51.148;16.932;2023-03-04T08:26:19;100057.16;;;2.76;100.00
45894;BME280;31603;51.148;16.932;2023-03-04T08:28:47;100065.16;;;2.77;100.00
45894;BME280;31603;51.148;16.932;2023-03-04T08:31:15;100059.44;;;2.97;100.00
45894;BME280;31603;51.148;16.932;2023-03-04T08:33:42;100059.13;;;3.08;100.00
45894;BME280;31603;51.148;16.932;2023-03-04T08:36:09;100062.63;;;2.84;100.00
45894;BME280;31603;51.148;16.932;2023-03-04T08:38:36;100029.72;;;2.87;100.00
45894;BME280;31603;51.148;16.932;2023-03-04T08:41:04;100051.69;;;3.10;100.00
45894;BME280;31603;51.148;16.932;2023-03-04T08:43:31;100047.06;;;2.94;100.00
45894;BME280;31603;51.148;16.932;2023-03-04T08:45:59;100037.72;;;2.97;100.00
45894;BME280;31603;51.148;16.932;2023-03-04T08:48:25;100038.47;;;3.31;100.00
45894;BME280;31603;51.148;16.932;2023-03-04T08:50:52;100043.06;;;3.31;100.00
45894;BME280;31603;51.148;16.932;2023-03-04T08:53:19;100048.31;;;3.41;100.00
45894;BME280;31603;51.148;16.932;2023-03-04T08:55:46;100054.78;;;3.48;100.00
45894;BME280;31603;51.148;16.932;2023-03-04T08:58:14;100041.84;;;3.17;100.00
45894;BME280;31603;51.148;16.932;2023-03-04T09:00:44;100045.97;;;3.62;100.00
45894;BME280;31603;51.148;16.932;2023-03-04T09:03:12;100052.75;;;3.50;100.00
45894;BME280;31603;51.148;16.932;2023-03-04T09:05:39;100039.50;;;3.55;100.00
45894;BME280;31603;51.148;16.932;2023-03-04T09:08:06;100040.00;;;3.58;100.00
45894;BME280;31603;51.148;16.932;2023-03-04T09:10:33;100029.31;;;3.73;100.00
45894;BME280;31603;51.148;16.932;2023-03-04T09:12:59;100034.59;;;3.75;100.00
45894;BME280;31603;51.148;16.932;2023-03-04T09:15:27;100041.03;;;3.66;100.00
45894;BME280;31603;51.148;16.932;2023-03-04T09:17:54;100045.97;;;3.70;100.00
45894;BME280;31603;51.148;16.932;2023-03-04T09:20:20;100045.97;;;3.78;100.00
45894;BME280;31603;51.148;16.932;2023-03-04T09:22:47;100025.91;;;3.55;100.00
45894;BME280;31603;51.148;16.932;2023-03-04T09:25:14;100055.16;;;3.94;100.00
45894;BME280;31603;51.148;16.932;2023-03-04T09:27:40;100041.88;;;3.82;100.00
45894;BME280;31603;51.148;16.932;2023-03-04T09:30:09;100047.16;;;3.59;100.00
45894;BME280;31603;51.148;16.932;2023-03-04T09:32:37;100051.75;;;3.43;100.00
45894;BME280;31603;51.148;16.932;2023-03-04T09:35:05;100046.81;;;3.87;100.00
45894;BME280;31603;51.148;16.932;2023-03-04T09:37:31;100041.88;;;3.82;100.00
45894;BME280;31603;51.148;16.932;2023-03-04T09:39:59;100048.16;;;3.99;100.00
45894;BME280;31603;51.148;16.932;2023-03-04T09:42:29;100037.78;;;4.03;100.00
45894;BME280;31603;51.148;16.932;2023-03-04T09:44:59;100033.34;;;4.02;100.00
45894;BME280;31603;51.148;16.932;2023-03-04T09:47:28;100040.34;;;4.04;100.00
45894;BME280;31603;51.148;16.932;2023-03-04T09:49:58;100034.03;;;3.96;100.00
45894;BME280;31603;51.148;16.932;2023-03-04T09:52:33;100035.91;;;4.12;100.00
45894;BME280;31603;51.148;16.932;2023-03-04T09:55:13;100034.66;;;4.30;100.00
45894;BME280;31603;51.148;16.932;2023-03-04T09:57:47;100024.75;;;4.46;100.00
45894;BME280;31603;51.148;16.932;2023-03-04T10:00:18;100023.84;;;4.14;100.00
45894;BME280;31603;51.148;16.932;2023-03-04T10:02:53;100019.72;;;4.10;100.00
45894;BME280;31603;51.148;16.932;2023-03-04T10:05:25;100022.50;;;4.57;100.00
45894;BME280;31603;51.148;16.932;2023-03-04T10:07:56;100017.31;;;4.23;100.00
45894;BME280;31603;51.148;16.932;2023-03-04T10:10:25;100012.13;;;3.97;100.00
45894;BME280;31603;51.148;16.932;2023-03-04T10:12:54;100021.25;;;4.29;100.00
45894;BME280;31603;51.148;16.932;2023-03-04T10:15:26;100013.78;;;4.06;100.00
45894;BME280;31603;51.148;16.932;2023-03-04T10:18:01;100018.63;;;4.44;100.00
45894;BME280;31603;51.148;16.932;2023-03-04T10:20:42;99998.34;;;4.54;100.00
45894;BME280;31603;51.148;16.932;2023-03-04T10:23:17;99995.59;;;4.15;100.00
45894;BME280;31603;51.148;16.932;2023-03-04T10:25:44;100008.09;;;4.41;100.00
45894;BME280;31603;51.148;16.932;2023-03-04T10:28:17;99997.31;;;4.08;100.00
45894;BME280;31603;51.148;16.932;2023-03-04T10:30:48;99990.72;;;4.42;100.00
45894;BME280;31603;51.148;16.932;2023-03-04T10:33:20;99988.59;;;4.60;100.00
45894;BME280;31603;51.148;16.932;2023-03-04T10:35:52;99985.88;;;4.60;100.00
45894;BME280;31603;51.148;16.932;2023-03-04T10:38:21;99990.91;;;4.40;100.00
45894;BME280;31603;51.148;16.932;2023-03-04T10:40:48;99980.78;;;4.57;100.00
45894;BME280;31603;51.148;16.932;2023-03-04T10:43:16;99981.69;;;4.80;100.00
45894;BME280;31603;51.148;16.932;2023-03-04T10:45:43;99981.41;;;4.67;100.00
45894;BME280;31603;51.148;16.932;2023-03-04T10:48:18;99985.31;;;4.73;100.00
45894;BME280;31603;51.148;16.932;2023-03-04T10:50:47;99975.63;;;4.70;100.00
45894;BME280;31603;51.148;16.932;2023-03-04T10:53:28;99969.13;;;4.79;100.00
45894;BME280;31603;51.148;16.932;2023-03-04T10:55:57;99969.88;;;4.65;100.00
45894;BME280;31603;51.148;16.932;2023-03-04T10:58:24;99962.94;;;4.54;100.00
45894;BME280;31603;51.148;16.932;2023-03-04T11:00:59;99971.72;;;4.96;100.00
45894;BME280;31603;51.148;16.932;2023-03-04T11:03:30;99970.34;;;5.00;100.00
45894;BME280;31603;51.148;16.932;2023-03-04T11:06:05;99961.25;;;5.07;100.00
45894;BME280;31603;51.148;16.932;2023-03-04T11:08:38;99943.47;;;5.20;100.00
45894;BME280;31603;51.148;16.932;2023-03-04T11:11:20;99955.22;;;5.20;100.00
45894;BME280;31603;51.148;16.932;2023-03-04T11:13:49;99967.94;;;5.28;100.00
45894;BME280;31603;51.148;16.932;2023-03-04T11:16:24;99962.78;;;5.10;100.00
45894;BME280;31603;51.148;16.932;2023-03-04T11:18:52;99951.69;;;5.35;100.00
45894;BME280;31603;51.148;16.932;2023-03-04T11:21:21;99963.47;;;5.12;100.00
45894;BME280;31603;51.148;16.932;2023-03-04T11:23:53;99963.97;;;5.07;100.00
45894;BME280;31603;51.148;16.932;2023-03-04T11:26:25;99958.59;;;5.22;100.00
45894;BME280;31603;51.148;16.932;2023-03-04T11:28:55;99957.94;;;5.20;100.00
45894;BME280;31603;51.148;16.932;2023-03-04T11:31:27;99969.19;;;5.17;100.00
45894;BME280;31603;51.148;16.932;2023-03-04T11:33:57;99953.53;;;5.19;100.00
45894;BME280;31603;51.148;16.932;2023-03-04T11:36:32;99961.84;;;5.41;100.00
45894;BME280;31603;51.148;16.932;2023-03-04T11:39:02;99937.25;;;5.49;100.00
45894;BME280;31603;51.148;16.932;2023-03-04T11:41:32;99945.00;;;5.37;100.00
45894;BME280;31603;51.148;16.932;2023-03-04T11:44:00;99945.13;;;5.82;100.00
45894;BME280;31603;51.148;16.932;2023-03-04T11:46:59;99949.91;;;5.79;100.00
45894;BME280;31603;51.148;16.932;2023-03-04T11:49:53;99934.69;;;5.47;100.00
45894;BME280;31603;51.148;16.932;2023-03-04T11:52:32;99944.75;;;5.09;100.00
45894;BME280;31603;51.148;16.932;2023-03-04T11:55:20;99942.31;;;5.14;100.00
45894;BME280;31603;51.148;16.932;2023-03-04T11:57:57;99940.84;;;5.64;100.00
45894;BME280;31603;51.148;16.932;2023-03-04T12:00:33;99936.38;;;5.86;100.00
45894;BME280;31603;51.148;16.932;2023-03-04T12:03:18;99933.63;;;5.34;100.00
45894;BME280;31603;51.148;16.932;2023-03-04T12:05:54;99942.09;;;4.93;100.00
45894;BME280;31603;51.148;16.932;2023-03-04T12:08:47;99937.56;;;5.08;100.00
45894;BME280;31603;51.148;16.932;2023-03-04T12:11:25;99939.03;;;4.96;100.00
45894;BME280;31603;51.148;16.932;2023-03-04T12:14:02;99924.16;;;5.44;100.00
45894;BME280;31603;51.148;16.932;2023-03-04T12:16:49;99929.84;;;6.10;100.00
45894;BME280;31603;51.148;16.932;2023-03-04T12:19:28;99925.72;;;5.76;100.00
45894;BME280;31603;51.148;16.932;2023-03-04T12:22:26;99924.63;;;5.48;100.00
45894;BME280;31603;51.148;16.932;2023-03-04T12:27:48;99929.25;;;5.47;100.00
45894;BME280;31603;51.148;16.932;2023-03-04T12:30:31;99898.72;;;5.67;100.00
45894;BME280;31603;51.148;16.932;2023-03-04T12:33:03;99920.19;;;5.85;100.00
45894;BME280;31603;51.148;16.932;2023-03-04T12:35:40;99906.84;;;5.90;100.00
45894;BME280;31603;51.148;16.932;2023-03-04T12:38:21;99911.34;;;5.83;100.00
45894;BME280;31603;51.148;16.932;2023-03-04T12:40:54;99910.34;;;6.13;100.00
45894;BME280;31603;51.148;16.932;2023-03-04T12:43:38;99916.94;;;6.04;100.00
45894;BME280;31603;51.148;16.932;2023-03-04T12:46:16;99905.53;;;6.15;100.00
45894;BME280;31603;51.148;16.932;2023-03-04T12:48:50;99921.91;;;5.48;100.00
45894;BME280;31603;51.148;16.932;2023-03-04T12:51:27;99912.97;;;5.39;100.00
45894;BME280;31603;51.148;16.932;2023-03-04T12:54:04;99903.34;;;5.28;100.00